Overseas Luzon — V7NE5 — position and weather

sailwx.info

Track history (hours):
 
Tides and Currents Weather Stations Pressure Air Temp Water Temp Dewpoint Dewpoint Depression Visibility Wind Speed Wind Dir Waves Ship Positions

Overseas Luzon

Last reported at 2014-Dec-23 00:33 UTC. Time now 2014-Dec-23 00:53 UTC.
Position N 33°21' W 118°04'.

Length 228 m; draft 11.7 m.

Type: Tanker. MMSI: 538002946.

Date/timePositionNaut miles runAvg speedWind from/ knotsBaromVisibWave heightAir tempDewpointWater temp
2014-Dec-23 00:33N 33°21' W 118°04'9 8.7
2014-Dec-22 23:34N 33°13' W 117°59'9 8.5
2014-Dec-22 22:34N 33°05' W 117°55'8 8.5
2014-Dec-22 21:34N 32°57' W 117°52'1111.2
2014-Dec-22 20:34N 32°46' W 117°49'10 9.7
2014-Dec-22 19:34N 32°37' W 117°50'1211.8
2014-Dec-22 18:34N 32°25' W 117°53'7 7.2
2014-Dec-22 17:33N 32°19' W 117°57'8 8.5
2014-Dec-22 16:33N 32°17' W 118°07'8 7.8
2014-Dec-22 15:34N 32°19' W 118°16'8 8.3
2014-Dec-22 14:33N 32°19' W 118°26'1010.1
2014-Dec-22 13:33N 32°18' W 118°38'1212.2
2014-Dec-22 12:33N 32°16' W 118°52'1212.1
2014-Dec-22 11:33N 32°14' W 119°06'1312.4
2014-Dec-22 10:31N 32°12' W 119°21'  
2014-Dec-18 12:18N 48°07' W 125°20'912.2
2014-Dec-18 11:34N 48°15' W 125°14'1212.2
2014-Dec-18 10:33N 48°26' W 125°05'1111.2
2014-Dec-18 09:33N 48°31' W 124°50'1211.9
2014-Dec-18 08:34N 48°28' W 124°33'1212.1
2014-Dec-18 07:33N 48°23' W 124°16'1212.3
2014-Dec-18 06:34N 48°18' W 123°59'1312.5
2014-Dec-18 05:32N 48°16' W 123°40'1110.9
2014-Dec-18 04:34N 48°21' W 123°26'9 8.7
2014-Dec-18 03:34N 48°24' W 123°14'1212.0
2014-Dec-18 02:33N 48°36' W 123°14'1010.2
2014-Dec-18 01:34N 48°45' W 123°06'8 8.3
2014-Dec-18 00:34N 48°53' W 123°07'1514.8
2014-Dec-17 23:33N 49°04' W 123°23'1414.0
2014-Dec-17 22:33N 49°17' W 123°19'7 7.4
2014-Dec-17 21:33N 49°18' W 123°07'5 5.2
2014-Dec-17 20:33N 49°18' W 122°59'2 1.5
2014-Dec-17 19:29N 49°17' W 122°57'0 0.0
2014-Dec-17 18:32N 49°17' W 122°57'0 0.0
2014-Dec-17 17:32N 49°17' W 122°57'0 0.0
2014-Dec-17 16:32N 49°17' W 122°57'0 0.0
2014-Dec-17 15:32N 49°17' W 122°57'0 0.0
2014-Dec-17 14:33N 49°17' W 122°57'0 0.0
2014-Dec-17 13:33N 49°17' W 122°57'0 0.0
2014-Dec-17 12:33N 49°17' W 122°57'0 0.0
2014-Dec-17 11:33N 49°17' W 122°57'0 0.0
2014-Dec-17 10:33N 49°17' W 122°57'0 0.0
2014-Dec-17 09:33N 49°17' W 122°57'0 0.0
2014-Dec-17 08:33N 49°17' W 122°57'0 0.0
2014-Dec-17 07:33N 49°17' W 122°57'0 0.0
2014-Dec-17 06:33N 49°17' W 122°57'0 0.0
2014-Dec-17 05:33N 49°17' W 122°57'0 0.0
2014-Dec-17 04:33N 49°17' W 122°57'0 0.0
2014-Dec-17 03:33N 49°17' W 122°57'0 0.0
2014-Dec-17 02:33N 49°17' W 122°57'0 0.0
2014-Dec-17 01:33N 49°17' W 122°57'0 0.0
2014-Dec-17 00:33N 49°17' W 122°57'0 0.0
2014-Dec-16 23:33N 49°17' W 122°57'0 0.0
2014-Dec-16 22:33N 49°17' W 122°57'0 0.0
2014-Dec-16 21:33N 49°17' W 122°57'0 0.0
2014-Dec-16 20:33N 49°17' W 122°57'0 0.0
2014-Dec-16 19:33N 49°17' W 122°57'0 0.0
2014-Dec-16 18:33N 49°17' W 122°57'0 0.0
2014-Dec-16 17:33N 49°17' W 122°57'0 0.0
2014-Dec-16 16:33N 49°17' W 122°57'0 0.0
2014-Dec-16 15:33N 49°17' W 122°57'0 0.2
2014-Dec-16 14:33N 49°18' W 122°57'0 0.2
2014-Dec-16 13:33N 49°18' W 122°57'0 0.0
2014-Dec-16 12:33N 49°18' W 122°57'0 0.0
2014-Dec-16 11:33N 49°18' W 122°57'0 0.0
2014-Dec-16 10:33N 49°18' W 122°57'0 0.1
2014-Dec-16 09:33N 49°18' W 122°57'0 0.0
2014-Dec-16 08:33N 49°18' W 122°57'0 0.0
2014-Dec-16 07:33N 49°18' W 122°57'0 0.0
2014-Dec-16 06:33N 49°18' W 122°57'0 0.1
2014-Dec-16 05:33N 49°18' W 122°57'0 0.2
2014-Dec-16 04:33N 49°18' W 122°57'3 3.3
2014-Dec-16 03:32N 49°18' W 123°02'8 8.6
2014-Dec-16 02:33N 49°18' W 123°15'1313.4
2014-Dec-16 01:33N 49°06' W 123°21'1413.5
2014-Dec-16 00:31N 48°55' W 123°07'1010.2
2014-Dec-15 23:34N 48°46' W 123°03'1110.6
2014-Dec-15 22:34N 48°38' W 123°14'1312.9
2014-Dec-15 21:33N 48°25' W 123°11'1010.4
2014-Dec-15 20:33N 48°19' W 123°24'5 5.5
2014-Dec-15 19:33N 48°15' W 123°28'6 5.5
2014-Dec-15 18:32N 48°13' W 123°37'6 6.3
2014-Dec-15 17:33N 48°13' W 123°46'7 6.6
2014-Dec-15 16:33N 48°14' W 123°56'8 8.4
2014-Dec-15 15:33N 48°17' W 124°07'1212.0
2014-Dec-15 14:33N 48°23' W 124°23'1212.1
2014-Dec-15 13:33N 48°27' W 124°40'1110.7
2014-Dec-15 12:33N 48°28' W 124°57'1211.9
2014-Dec-15 11:32N 48°19' W 125°09'1211.9
2014-Dec-15 10:31N 48°12' W 125°23'  
Track history (hours):
 
Tides and Currents Weather Stations Pressure Air Temp Water Temp Dewpoint Dewpoint Depression Visibility Wind Speed Wind Dir Waves Ship Positions

Overseas Luzon

Last reported at 2014-Dec-23 00:33 UTC. Time now 2014-Dec-23 00:53 UTC.
Position N 33°21' W 118°04'.

Length 228 m; draft 11.7 m.

Type: Tanker. MMSI: 538002946.

Date/timePositionNaut miles runAvg speedWind from/ knotsBaromVisibWave heightAir tempDewpointWater temp
2014-Dec-23 00:33N 33°21' W 118°04'9 8.7
2014-Dec-22 23:34N 33°13' W 117°59'9 8.5
2014-Dec-22 22:34N 33°05' W 117°55'8 8.5
2014-Dec-22 21:34N 32°57' W 117°52'1111.2
2014-Dec-22 20:34N 32°46' W 117°49'10 9.7
2014-Dec-22 19:34N 32°37' W 117°50'1211.8
2014-Dec-22 18:34N 32°25' W 117°53'7 7.2
2014-Dec-22 17:33N 32°19' W 117°57'8 8.5
2014-Dec-22 16:33N 32°17' W 118°07'8 7.8
2014-Dec-22 15:34N 32°19' W 118°16'8 8.3
2014-Dec-22 14:33N 32°19' W 118°26'1010.1
2014-Dec-22 13:33N 32°18' W 118°38'1212.2
2014-Dec-22 12:33N 32°16' W 118°52'1212.1
2014-Dec-22 11:33N 32°14' W 119°06'1312.4
2014-Dec-22 10:31N 32°12' W 119°21'  
2014-Dec-18 12:18N 48°07' W 125°20'912.2
2014-Dec-18 11:34N 48°15' W 125°14'1212.2
2014-Dec-18 10:33N 48°26' W 125°05'1111.2
2014-Dec-18 09:33N 48°31' W 124°50'1211.9
2014-Dec-18 08:34N 48°28' W 124°33'1212.1
2014-Dec-18 07:33N 48°23' W 124°16'1212.3
2014-Dec-18 06:34N 48°18' W 123°59'1312.5
2014-Dec-18 05:32N 48°16' W 123°40'1110.9
2014-Dec-18 04:34N 48°21' W 123°26'9 8.7
2014-Dec-18 03:34N 48°24' W 123°14'1212.0
2014-Dec-18 02:33N 48°36' W 123°14'1010.2
2014-Dec-18 01:34N 48°45' W 123°06'8 8.3
2014-Dec-18 00:34N 48°53' W 123°07'1514.8
2014-Dec-17 23:33N 49°04' W 123°23'1414.0
2014-Dec-17 22:33N 49°17' W 123°19'7 7.4
2014-Dec-17 21:33N 49°18' W 123°07'5 5.2
2014-Dec-17 20:33N 49°18' W 122°59'2 1.5
2014-Dec-17 19:29N 49°17' W 122°57'0 0.0
2014-Dec-17 18:32N 49°17' W 122°57'0 0.0
2014-Dec-17 17:32N 49°17' W 122°57'0 0.0
2014-Dec-17 16:32N 49°17' W 122°57'0 0.0
2014-Dec-17 15:32N 49°17' W 122°57'0 0.0
2014-Dec-17 14:33N 49°17' W 122°57'0 0.0
2014-Dec-17 13:33N 49°17' W 122°57'0 0.0
2014-Dec-17 12:33N 49°17' W 122°57'0 0.0
2014-Dec-17 11:33N 49°17' W 122°57'0 0.0
2014-Dec-17 10:33N 49°17' W 122°57'0 0.0
2014-Dec-17 09:33N 49°17' W 122°57'0 0.0
2014-Dec-17 08:33N 49°17' W 122°57'0 0.0
2014-Dec-17 07:33N 49°17' W 122°57'0 0.0
2014-Dec-17 06:33N 49°17' W 122°57'0 0.0
2014-Dec-17 05:33N 49°17' W 122°57'0 0.0
2014-Dec-17 04:33N 49°17' W 122°57'0 0.0
2014-Dec-17 03:33N 49°17' W 122°57'0 0.0
2014-Dec-17 02:33N 49°17' W 122°57'0 0.0
2014-Dec-17 01:33N 49°17' W 122°57'0 0.0
2014-Dec-17 00:33N 49°17' W 122°57'0 0.0
2014-Dec-16 23:33N 49°17' W 122°57'0 0.0
2014-Dec-16 22:33N 49°17' W 122°57'0 0.0
2014-Dec-16 21:33N 49°17' W 122°57'0 0.0
2014-Dec-16 20:33N 49°17' W 122°57'0 0.0
2014-Dec-16 19:33N 49°17' W 122°57'0 0.0
2014-Dec-16 18:33N 49°17' W 122°57'0 0.0
2014-Dec-16 17:33N 49°17' W 122°57'0 0.0
2014-Dec-16 16:33N 49°17' W 122°57'0 0.0
2014-Dec-16 15:33N 49°17' W 122°57'0 0.2
2014-Dec-16 14:33N 49°18' W 122°57'0 0.2
2014-Dec-16 13:33N 49°18' W 122°57'0 0.0
2014-Dec-16 12:33N 49°18' W 122°57'0 0.0
2014-Dec-16 11:33N 49°18' W 122°57'0 0.0
2014-Dec-16 10:33N 49°18' W 122°57'0 0.1
2014-Dec-16 09:33N 49°18' W 122°57'0 0.0
2014-Dec-16 08:33N 49°18' W 122°57'0 0.0
2014-Dec-16 07:33N 49°18' W 122°57'0 0.0
2014-Dec-16 06:33N 49°18' W 122°57'0 0.1
2014-Dec-16 05:33N 49°18' W 122°57'0 0.2
2014-Dec-16 04:33N 49°18' W 122°57'3 3.3
2014-Dec-16 03:32N 49°18' W 123°02'8 8.6
2014-Dec-16 02:33N 49°18' W 123°15'1313.4
2014-Dec-16 01:33N 49°06' W 123°21'1413.5
2014-Dec-16 00:31N 48°55' W 123°07'1010.2
2014-Dec-15 23:34N 48°46' W 123°03'1110.6
2014-Dec-15 22:34N 48°38' W 123°14'1312.9
2014-Dec-15 21:33N 48°25' W 123°11'1010.4
2014-Dec-15 20:33N 48°19' W 123°24'5 5.5
2014-Dec-15 19:33N 48°15' W 123°28'6 5.5
2014-Dec-15 18:32N 48°13' W 123°37'6 6.3
2014-Dec-15 17:33N 48°13' W 123°46'7 6.6
2014-Dec-15 16:33N 48°14' W 123°56'8 8.4
2014-Dec-15 15:33N 48°17' W 124°07'1212.0
2014-Dec-15 14:33N 48°23' W 124°23'1212.1
2014-Dec-15 13:33N 48°27' W 124°40'1110.7
2014-Dec-15 12:33N 48°28' W 124°57'1211.9
2014-Dec-15 11:32N 48°19' W 125°09'1211.9
2014-Dec-15 10:31N 48°12' W 125°23'  

Dump ship's entire track history